sensor_id;sensor_type;location;lat;lon;timestamp;P1;durP1;ratioP1;P2;durP2;ratioP2
22480;SDS011;11407;56.964;-2.212;2023-02-22T00:00:16;4.60;;;3.73;;
22480;SDS011;11407;56.964;-2.212;2023-02-22T00:02:50;4.97;;;3.40;;
22480;SDS011;11407;56.964;-2.212;2023-02-22T00:05:16;4.50;;;3.67;;
22480;SDS011;11407;56.964;-2.212;2023-02-22T00:07:44;4.47;;;3.60;;
22480;SDS011;11407;56.964;-2.212;2023-02-22T00:10:09;4.53;;;3.63;;
22480;SDS011;11407;56.964;-2.212;2023-02-22T00:12:38;4.13;;;3.47;;
22480;SDS011;11407;56.964;-2.212;2023-02-22T00:15:03;4.53;;;3.10;;
22480;SDS011;11407;56.964;-2.212;2023-02-22T00:17:29;4.17;;;3.17;;
22480;SDS011;11407;56.964;-2.212;2023-02-22T00:19:54;4.23;;;3.50;;
22480;SDS011;11407;56.964;-2.212;2023-02-22T00:22:20;4.20;;;3.67;;
22480;SDS011;11407;56.964;-2.212;2023-02-22T00:24:45;4.23;;;3.47;;
22480;SDS011;11407;56.964;-2.212;2023-02-22T00:27:10;4.13;;;3.33;;
22480;SDS011;11407;56.964;-2.212;2023-02-22T00:29:35;5.20;;;3.60;;
22480;SDS011;11407;56.964;-2.212;2023-02-22T00:32:01;4.10;;;3.60;;
22480;SDS011;11407;56.964;-2.212;2023-02-22T00:34:26;4.70;;;3.70;;
22480;SDS011;11407;56.964;-2.212;2023-02-22T00:36:51;4.50;;;3.63;;
22480;SDS011;11407;56.964;-2.212;2023-02-22T00:39:17;4.37;;;3.97;;
22480;SDS011;11407;56.964;-2.212;2023-02-22T00:41:42;4.13;;;3.30;;
22480;SDS011;11407;56.964;-2.212;2023-02-22T00:44:07;4.77;;;3.73;;
22480;SDS011;11407;56.964;-2.212;2023-02-22T00:46:33;4.60;;;3.47;;
22480;SDS011;11407;56.964;-2.212;2023-02-22T00:48:58;4.13;;;3.30;;
22480;SDS011;11407;56.964;-2.212;2023-02-22T00:51:26;4.53;;;3.63;;
22480;SDS011;11407;56.964;-2.212;2023-02-22T00:53:52;3.93;;;3.33;;
22480;SDS011;11407;56.964;-2.212;2023-02-22T00:56:18;4.10;;;3.57;;
22480;SDS011;11407;56.964;-2.212;2023-02-22T00:58:43;6.23;;;3.77;;
22480;SDS011;11407;56.964;-2.212;2023-02-22T01:01:08;4.67;;;3.70;;
22480;SDS011;11407;56.964;-2.212;2023-02-22T01:03:34;5.23;;;3.47;;
22480;SDS011;11407;56.964;-2.212;2023-02-22T01:05:59;3.43;;;2.90;;
22480;SDS011;11407;56.964;-2.212;2023-02-22T01:08:24;4.20;;;3.40;;
22480;SDS011;11407;56.964;-2.212;2023-02-22T01:10:50;4.13;;;3.00;;
22480;SDS011;11407;56.964;-2.212;2023-02-22T01:13:16;3.93;;;3.20;;
22480;SDS011;11407;56.964;-2.212;2023-02-22T01:15:43;4.30;;;3.13;;
22480;SDS011;11407;56.964;-2.212;2023-02-22T01:18:09;3.80;;;2.90;;
22480;SDS011;11407;56.964;-2.212;2023-02-22T01:20:36;4.27;;;3.17;;
22480;SDS011;11407;56.964;-2.212;2023-02-22T01:23:02;5.00;;;3.10;;
22480;SDS011;11407;56.964;-2.212;2023-02-22T01:25:28;4.23;;;3.27;;
22480;SDS011;11407;56.964;-2.212;2023-02-22T01:27:54;4.07;;;2.73;;
22480;SDS011;11407;56.964;-2.212;2023-02-22T01:30:21;4.47;;;2.60;;
22480;SDS011;11407;56.964;-2.212;2023-02-22T01:32:47;6.17;;;2.80;;
22480;SDS011;11407;56.964;-2.212;2023-02-22T01:35:15;3.37;;;2.73;;
22480;SDS011;11407;56.964;-2.212;2023-02-22T01:37:42;4.80;;;2.43;;
22480;SDS011;11407;56.964;-2.212;2023-02-22T01:40:09;4.20;;;2.53;;
22480;SDS011;11407;56.964;-2.212;2023-02-22T01:42:40;3.63;;;2.47;;
22480;SDS011;11407;56.964;-2.212;2023-02-22T01:47:49;2.47;;;2.10;;
22480;SDS011;11407;56.964;-2.212;2023-02-22T01:50:14;5.63;;;1.97;;
22480;SDS011;11407;56.964;-2.212;2023-02-22T01:52:39;6.20;;;2.40;;
22480;SDS011;11407;56.964;-2.212;2023-02-22T01:55:05;3.43;;;2.40;;
22480;SDS011;11407;56.964;-2.212;2023-02-22T01:57:31;3.80;;;2.33;;
22480;SDS011;11407;56.964;-2.212;2023-02-22T02:00:05;3.57;;;2.10;;
22480;SDS011;11407;56.964;-2.212;2023-02-22T02:02:35;3.80;;;1.97;;
22480;SDS011;11407;56.964;-2.212;2023-02-22T02:05:01;4.07;;;2.20;;
22480;SDS011;11407;56.964;-2.212;2023-02-22T02:07:26;4.50;;;2.50;;
22480;SDS011;11407;56.964;-2.212;2023-02-22T02:12:18;4.50;;;2.40;;
22480;SDS011;11407;56.964;-2.212;2023-02-22T02:14:45;2.70;;;2.00;;
22480;SDS011;11407;56.964;-2.212;2023-02-22T02:17:14;2.87;;;2.07;;
22480;SDS011;11407;56.964;-2.212;2023-02-22T02:19:44;3.73;;;2.00;;
22480;SDS011;11407;56.964;-2.212;2023-02-22T02:27:24;3.90;;;2.20;;
22480;SDS011;11407;56.964;-2.212;2023-02-22T02:32:30;3.73;;;1.97;;
22480;SDS011;11407;56.964;-2.212;2023-02-22T02:40:14;5.03;;;2.07;;
22480;SDS011;11407;56.964;-2.212;2023-02-22T02:42:55;3.77;;;1.87;;
22480;SDS011;11407;56.964;-2.212;2023-02-22T02:45:43;2.60;;;2.07;;
22480;SDS011;11407;56.964;-2.212;2023-02-22T02:48:10;2.73;;;2.00;;
22480;SDS011;11407;56.964;-2.212;2023-02-22T02:50:37;4.83;;;2.10;;
22480;SDS011;11407;56.964;-2.212;2023-02-22T02:53:06;3.10;;;1.80;;
22480;SDS011;11407;56.964;-2.212;2023-02-22T02:55:32;2.93;;;1.70;;
22480;SDS011;11407;56.964;-2.212;2023-02-22T02:58:00;2.93;;;1.90;;
22480;SDS011;11407;56.964;-2.212;2023-02-22T03:00:28;2.97;;;1.87;;
22480;SDS011;11407;56.964;-2.212;2023-02-22T03:12:52;3.23;;;1.50;;
22480;SDS011;11407;56.964;-2.212;2023-02-22T03:18:06;2.83;;;1.30;;
22480;SDS011;11407;56.964;-2.212;2023-02-22T03:20:43;2.80;;;1.50;;
22480;SDS011;11407;56.964;-2.212;2023-02-22T03:25:37;2.27;;;1.50;;
22480;SDS011;11407;56.964;-2.212;2023-02-22T03:28:06;4.17;;;1.53;;
22480;SDS011;11407;56.964;-2.212;2023-02-22T03:30:45;2.80;;;1.50;;
22480;SDS011;11407;56.964;-2.212;2023-02-22T03:33:14;1.80;;;1.53;;
22480;SDS011;11407;56.964;-2.212;2023-02-22T03:35:46;2.53;;;1.37;;
22480;SDS011;11407;56.964;-2.212;2023-02-22T03:38:12;4.10;;;1.67;;
22480;SDS011;11407;56.964;-2.212;2023-02-22T03:40:40;2.60;;;1.60;;
22480;SDS011;11407;56.964;-2.212;2023-02-22T03:43:09;2.83;;;1.50;;
22480;SDS011;11407;56.964;-2.212;2023-02-22T03:45:35;2.70;;;1.60;;
22480;SDS011;11407;56.964;-2.212;2023-02-22T03:48:03;2.83;;;1.40;;
22480;SDS011;11407;56.964;-2.212;2023-02-22T03:50:32;2.23;;;1.60;;
22480;SDS011;11407;56.964;-2.212;2023-02-22T03:52:59;1.73;;;1.47;;
22480;SDS011;11407;56.964;-2.212;2023-02-22T03:55:25;1.83;;;1.43;;
22480;SDS011;11407;56.964;-2.212;2023-02-22T03:58:03;2.37;;;1.40;;
22480;SDS011;11407;56.964;-2.212;2023-02-22T04:00:30;2.90;;;1.57;;
22480;SDS011;11407;56.964;-2.212;2023-02-22T04:02:56;3.03;;;1.70;;
22480;SDS011;11407;56.964;-2.212;2023-02-22T04:05:21;3.00;;;1.50;;
22480;SDS011;11407;56.964;-2.212;2023-02-22T04:07:48;2.70;;;1.70;;
22480;SDS011;11407;56.964;-2.212;2023-02-22T04:10:14;2.27;;;1.87;;
22480;SDS011;11407;56.964;-2.212;2023-02-22T04:12:40;3.23;;;1.30;;
22480;SDS011;11407;56.964;-2.212;2023-02-22T04:15:05;3.67;;;1.67;;
22480;SDS011;11407;56.964;-2.212;2023-02-22T04:17:31;3.37;;;1.60;;
22480;SDS011;11407;56.964;-2.212;2023-02-22T04:19:57;4.60;;;1.90;;
22480;SDS011;11407;56.964;-2.212;2023-02-22T04:22:22;2.00;;;1.70;;
22480;SDS011;11407;56.964;-2.212;2023-02-22T04:24:47;3.47;;;1.67;;
22480;SDS011;11407;56.964;-2.212;2023-02-22T04:27:13;2.60;;;1.30;;
22480;SDS011;11407;56.964;-2.212;2023-02-22T04:29:38;1.87;;;1.20;;
22480;SDS011;11407;56.964;-2.212;2023-02-22T04:32:03;2.50;;;0.80;;
22480;SDS011;11407;56.964;-2.212;2023-02-22T04:34:29;2.50;;;0.90;;
22480;SDS011;11407;56.964;-2.212;2023-02-22T04:36:54;1.80;;;0.70;;
22480;SDS011;11407;56.964;-2.212;2023-02-22T04:39:19;1.07;;;0.60;;
22480;SDS011;11407;56.964;-2.212;2023-02-22T04:41:44;0.50;;;0.40;;
22480;SDS011;11407;56.964;-2.212;2023-02-22T04:44:11;0.63;;;0.50;;
22480;SDS011;11407;56.964;-2.212;2023-02-22T04:46:36;0.50;;;0.40;;
22480;SDS011;11407;56.964;-2.212;2023-02-22T04:49:02;0.50;;;0.50;;
22480;SDS011;11407;56.964;-2.212;2023-02-22T04:51:27;0.50;;;0.50;;
22480;SDS011;11407;56.964;-2.212;2023-02-22T04:53:52;1.03;;;0.67;;
22480;SDS011;11407;56.964;-2.212;2023-02-22T04:56:18;0.40;;;0.40;;
22480;SDS011;11407;56.964;-2.212;2023-02-22T04:58:43;0.87;;;0.33;;
22480;SDS011;11407;56.964;-2.212;2023-02-22T05:01:09;0.30;;;0.30;;
22480;SDS011;11407;56.964;-2.212;2023-02-22T05:03:36;0.30;;;0.30;;
22480;SDS011;11407;56.964;-2.212;2023-02-22T05:06:01;0.30;;;0.30;;
22480;SDS011;11407;56.964;-2.212;2023-02-22T05:08:27;0.30;;;0.30;;
22480;SDS011;11407;56.964;-2.212;2023-02-22T05:10:53;0.33;;;0.33;;
22480;SDS011;11407;56.964;-2.212;2023-02-22T05:13:18;0.20;;;0.20;;
22480;SDS011;11407;56.964;-2.212;2023-02-22T05:15:44;0.40;;;0.30;;
22480;SDS011;11407;56.964;-2.212;2023-02-22T05:18:09;0.47;;;0.30;;
22480;SDS011;11407;56.964;-2.212;2023-02-22T05:20:34;0.33;;;0.33;;
22480;SDS011;11407;56.964;-2.212;2023-02-22T05:23:00;0.30;;;0.30;;
22480;SDS011;11407;56.964;-2.212;2023-02-22T05:25:26;1.33;;;0.40;;
22480;SDS011;11407;56.964;-2.212;2023-02-22T05:27:55;0.30;;;0.30;;
22480;SDS011;11407;56.964;-2.212;2023-02-22T05:30:24;0.20;;;0.20;;
22480;SDS011;11407;56.964;-2.212;2023-02-22T05:32:49;0.30;;;0.30;;
22480;SDS011;11407;56.964;-2.212;2023-02-22T05:35:15;0.83;;;0.30;;
22480;SDS011;11407;56.964;-2.212;2023-02-22T05:37:40;0.50;;;0.30;;
22480;SDS011;11407;56.964;-2.212;2023-02-22T05:40:06;0.50;;;0.37;;
22480;SDS011;11407;56.964;-2.212;2023-02-22T05:42:31;0.33;;;0.20;;
22480;SDS011;11407;56.964;-2.212;2023-02-22T05:44:57;0.30;;;0.30;;
22480;SDS011;11407;56.964;-2.212;2023-02-22T05:47:23;0.97;;;0.30;;
22480;SDS011;11407;56.964;-2.212;2023-02-22T05:49:49;0.50;;;0.40;;
22480;SDS011;11407;56.964;-2.212;2023-02-22T05:52:14;0.30;;;0.30;;
22480;SDS011;11407;56.964;-2.212;2023-02-22T05:54:40;0.30;;;0.30;;
22480;SDS011;11407;56.964;-2.212;2023-02-22T05:57:05;0.23;;;0.20;;
22480;SDS011;11407;56.964;-2.212;2023-02-22T05:59:30;0.20;;;0.20;;
22480;SDS011;11407;56.964;-2.212;2023-02-22T06:01:55;0.20;;;0.20;;
22480;SDS011;11407;56.964;-2.212;2023-02-22T06:04:21;0.20;;;0.20;;
22480;SDS011;11407;56.964;-2.212;2023-02-22T06:06:46;0.20;;;0.20;;
22480;SDS011;11407;56.964;-2.212;2023-02-22T06:09:11;0.27;;;0.27;;
22480;SDS011;11407;56.964;-2.212;2023-02-22T06:11:36;0.40;;;0.30;;
22480;SDS011;11407;56.964;-2.212;2023-02-22T06:14:01;0.63;;;0.30;;
22480;SDS011;11407;56.964;-2.212;2023-02-22T06:16:27;0.23;;;0.23;;
22480;SDS011;11407;56.964;-2.212;2023-02-22T06:18:52;0.30;;;0.30;;
22480;SDS011;11407;56.964;-2.212;2023-02-22T06:21:17;1.60;;;0.40;;
22480;SDS011;11407;56.964;-2.212;2023-02-22T06:23:43;0.33;;;0.30;;
22480;SDS011;11407;56.964;-2.212;2023-02-22T06:26:08;1.70;;;0.40;;
22480;SDS011;11407;56.964;-2.212;2023-02-22T06:28:33;0.57;;;0.30;;
22480;SDS011;11407;56.964;-2.212;2023-02-22T06:30:58;0.20;;;0.20;;
22480;SDS011;11407;56.964;-2.212;2023-02-22T06:33:24;0.33;;;0.27;;
22480;SDS011;11407;56.964;-2.212;2023-02-22T06:35:49;0.20;;;0.20;;
22480;SDS011;11407;56.964;-2.212;2023-02-22T06:38:24;0.93;;;0.40;;
22480;SDS011;11407;56.964;-2.212;2023-02-22T06:40:50;0.27;;;0.27;;
22480;SDS011;11407;56.964;-2.212;2023-02-22T06:43:15;1.87;;;0.40;;
22480;SDS011;11407;56.964;-2.212;2023-02-22T06:45:40;0.23;;;0.23;;
22480;SDS011;11407;56.964;-2.212;2023-02-22T06:48:06;0.30;;;0.30;;
22480;SDS011;11407;56.964;-2.212;2023-02-22T06:50:31;0.27;;;0.27;;
22480;SDS011;11407;56.964;-2.212;2023-02-22T06:52:56;0.27;;;0.27;;
22480;SDS011;11407;56.964;-2.212;2023-02-22T06:55:26;0.30;;;0.30;;
22480;SDS011;11407;56.964;-2.212;2023-02-22T06:57:52;0.60;;;0.30;;
22480;SDS011;11407;56.964;-2.212;2023-02-22T07:00:18;0.20;;;0.20;;
22480;SDS011;11407;56.964;-2.212;2023-02-22T07:02:44;0.30;;;0.30;;
22480;SDS011;11407;56.964;-2.212;2023-02-22T07:05:10;0.20;;;0.20;;
22480;SDS011;11407;56.964;-2.212;2023-02-22T07:07:36;0.30;;;0.30;;
22480;SDS011;11407;56.964;-2.212;2023-02-22T07:10:03;0.50;;;0.30;;
22480;SDS011;11407;56.964;-2.212;2023-02-22T07:12:28;0.43;;;0.33;;
22480;SDS011;11407;56.964;-2.212;2023-02-22T07:14:54;0.30;;;0.30;;
22480;SDS011;11407;56.964;-2.212;2023-02-22T07:17:19;1.23;;;0.50;;
22480;SDS011;11407;56.964;-2.212;2023-02-22T07:19:44;0.47;;;0.27;;
22480;SDS011;11407;56.964;-2.212;2023-02-22T07:22:10;1.13;;;0.40;;
22480;SDS011;11407;56.964;-2.212;2023-02-22T07:24:35;0.27;;;0.27;;
22480;SDS011;11407;56.964;-2.212;2023-02-22T07:27:00;0.30;;;0.30;;
22480;SDS011;11407;56.964;-2.212;2023-02-22T07:29:26;1.70;;;0.50;;
22480;SDS011;11407;56.964;-2.212;2023-02-22T07:31:51;0.73;;;0.40;;
22480;SDS011;11407;56.964;-2.212;2023-02-22T07:34:17;1.07;;;0.20;;
22480;SDS011;11407;56.964;-2.212;2023-02-22T07:36:42;1.20;;;0.30;;
22480;SDS011;11407;56.964;-2.212;2023-02-22T07:39:07;1.20;;;0.40;;
22480;SDS011;11407;56.964;-2.212;2023-02-22T07:41:33;1.50;;;0.40;;
22480;SDS011;11407;56.964;-2.212;2023-02-22T07:43:58;0.50;;;0.50;;
22480;SDS011;11407;56.964;-2.212;2023-02-22T07:46:23;0.30;;;0.30;;
22480;SDS011;11407;56.964;-2.212;2023-02-22T07:48:48;0.37;;;0.30;;
22480;SDS011;11407;56.964;-2.212;2023-02-22T07:51:16;0.20;;;0.20;;
22480;SDS011;11407;56.964;-2.212;2023-02-22T07:53:44;0.47;;;0.40;;
22480;SDS011;11407;56.964;-2.212;2023-02-22T07:56:09;1.87;;;0.40;;
22480;SDS011;11407;56.964;-2.212;2023-02-22T07:58:34;0.77;;;0.40;;
22480;SDS011;11407;56.964;-2.212;2023-02-22T08:01:00;1.10;;;0.30;;
22480;SDS011;11407;56.964;-2.212;2023-02-22T08:03:29;0.77;;;0.30;;
22480;SDS011;11407;56.964;-2.212;2023-02-22T08:05:55;0.30;;;0.30;;
22480;SDS011;11407;56.964;-2.212;2023-02-22T08:08:21;0.97;;;0.50;;
22480;SDS011;11407;56.964;-2.212;2023-02-22T08:10:46;1.60;;;0.30;;
22480;SDS011;11407;56.964;-2.212;2023-02-22T08:13:12;0.40;;;0.40;;
22480;SDS011;11407;56.964;-2.212;2023-02-22T08:15:38;1.73;;;0.57;;
22480;SDS011;11407;56.964;-2.212;2023-02-22T08:18:04;1.10;;;0.23;;
22480;SDS011;11407;56.964;-2.212;2023-02-22T08:20:30;1.97;;;0.30;;
22480;SDS011;11407;56.964;-2.212;2023-02-22T08:22:55;0.50;;;0.30;;
22480;SDS011;11407;56.964;-2.212;2023-02-22T08:25:21;0.40;;;0.40;;
22480;SDS011;11407;56.964;-2.212;2023-02-22T08:27:49;0.50;;;0.30;;
22480;SDS011;11407;56.964;-2.212;2023-02-22T08:30:16;3.30;;;0.40;;
22480;SDS011;11407;56.964;-2.212;2023-02-22T08:32:41;0.80;;;0.40;;
22480;SDS011;11407;56.964;-2.212;2023-02-22T08:35:07;0.93;;;0.50;;
22480;SDS011;11407;56.964;-2.212;2023-02-22T08:37:32;0.37;;;0.33;;
22480;SDS011;11407;56.964;-2.212;2023-02-22T08:39:57;0.47;;;0.40;;
22480;SDS011;11407;56.964;-2.212;2023-02-22T08:42:22;0.60;;;0.50;;
22480;SDS011;11407;56.964;-2.212;2023-02-22T08:44:48;0.27;;;0.27;;
22480;SDS011;11407;56.964;-2.212;2023-02-22T08:47:13;0.50;;;0.50;;
22480;SDS011;11407;56.964;-2.212;2023-02-22T08:49:38;3.30;;;0.40;;
22480;SDS011;11407;56.964;-2.212;2023-02-22T08:52:03;0.30;;;0.30;;
22480;SDS011;11407;56.964;-2.212;2023-02-22T08:54:29;0.40;;;0.30;;
22480;SDS011;11407;56.964;-2.212;2023-02-22T08:56:54;0.43;;;0.43;;
22480;SDS011;11407;56.964;-2.212;2023-02-22T08:59:19;1.07;;;0.50;;
22480;SDS011;11407;56.964;-2.212;2023-02-22T09:01:45;2.93;;;0.70;;
22480;SDS011;11407;56.964;-2.212;2023-02-22T09:04:10;3.57;;;1.00;;
22480;SDS011;11407;56.964;-2.212;2023-02-22T09:06:35;2.30;;;0.73;;
22480;SDS011;11407;56.964;-2.212;2023-02-22T09:09:01;2.00;;;0.60;;
22480;SDS011;11407;56.964;-2.212;2023-02-22T09:11:26;1.87;;;0.40;;
22480;SDS011;11407;56.964;-2.212;2023-02-22T09:13:51;1.30;;;0.60;;
22480;SDS011;11407;56.964;-2.212;2023-02-22T09:16:17;0.80;;;0.57;;
22480;SDS011;11407;56.964;-2.212;2023-02-22T09:18:42;0.77;;;0.50;;
22480;SDS011;11407;56.964;-2.212;2023-02-22T09:21:07;1.07;;;0.67;;
22480;SDS011;11407;56.964;-2.212;2023-02-22T09:23:32;2.63;;;0.50;;
22480;SDS011;11407;56.964;-2.212;2023-02-22T09:25:58;2.10;;;0.47;;
22480;SDS011;11407;56.964;-2.212;2023-02-22T09:28:24;3.20;;;0.40;;
22480;SDS011;11407;56.964;-2.212;2023-02-22T09:30:50;0.83;;;0.60;;
22480;SDS011;11407;56.964;-2.212;2023-02-22T09:33:15;2.03;;;0.70;;
22480;SDS011;11407;56.964;-2.212;2023-02-22T09:35:42;1.87;;;0.60;;
22480;SDS011;11407;56.964;-2.212;2023-02-22T09:38:10;1.80;;;0.53;;
22480;SDS011;11407;56.964;-2.212;2023-02-22T09:40:37;1.17;;;0.47;;
22480;SDS011;11407;56.964;-2.212;2023-02-22T09:48:17;5.63;;;0.73;;
22480;SDS011;11407;56.964;-2.212;2023-02-22T09:50:43;0.90;;;0.60;;
22480;SDS011;11407;56.964;-2.212;2023-02-22T09:53:31;0.87;;;0.50;;
22480;SDS011;11407;56.964;-2.212;2023-02-22T09:56:00;0.60;;;0.47;;
22480;SDS011;11407;56.964;-2.212;2023-02-22T09:58:32;1.53;;;0.50;;
22480;SDS011;11407;56.964;-2.212;2023-02-22T10:01:03;1.33;;;0.50;;
22480;SDS011;11407;56.964;-2.212;2023-02-22T10:03:55;0.97;;;0.50;;
22480;SDS011;11407;56.964;-2.212;2023-02-22T10:06:19;1.77;;;0.50;;
22480;SDS011;11407;56.964;-2.212;2023-02-22T10:08:45;4.03;;;0.93;;
22480;SDS011;11407;56.964;-2.212;2023-02-22T10:16:10;1.67;;;0.70;;
22480;SDS011;11407;56.964;-2.212;2023-02-22T10:26:25;2.83;;;0.70;;
22480;SDS011;11407;56.964;-2.212;2023-02-22T10:28:53;2.50;;;0.70;;
22480;SDS011;11407;56.964;-2.212;2023-02-22T10:31:22;1.87;;;0.80;;
22480;SDS011;11407;56.964;-2.212;2023-02-22T10:33:52;1.00;;;0.70;;
22480;SDS011;11407;56.964;-2.212;2023-02-22T10:36:20;1.70;;;0.67;;
22480;SDS011;11407;56.964;-2.212;2023-02-22T10:39:46;2.07;;;0.53;;
22480;SDS011;11407;56.964;-2.212;2023-02-22T10:41:43;1.80;;;0.80;;
22480;SDS011;11407;56.964;-2.212;2023-02-22T10:44:12;7.63;;;0.80;;
22480;SDS011;11407;56.964;-2.212;2023-02-22T10:46:37;1.20;;;0.50;;
22480;SDS011;11407;56.964;-2.212;2023-02-22T10:49:04;4.13;;;0.70;;
22480;SDS011;11407;56.964;-2.212;2023-02-22T10:51:32;1.47;;;0.67;;
22480;SDS011;11407;56.964;-2.212;2023-02-22T10:54:20;2.07;;;0.70;;
22480;SDS011;11407;56.964;-2.212;2023-02-22T10:56:48;1.43;;;0.83;;
22480;SDS011;11407;56.964;-2.212;2023-02-22T10:59:24;5.10;;;0.80;;
22480;SDS011;11407;56.964;-2.212;2023-02-22T11:01:51;1.90;;;0.80;;
22480;SDS011;11407;56.964;-2.212;2023-02-22T11:04:17;3.73;;;1.00;;
22480;SDS011;11407;56.964;-2.212;2023-02-22T11:06:44;0.90;;;0.70;;
22480;SDS011;11407;56.964;-2.212;2023-02-22T11:09:12;1.30;;;0.73;;
22480;SDS011;11407;56.964;-2.212;2023-02-22T11:11:41;2.70;;;1.00;;
22480;SDS011;11407;56.964;-2.212;2023-02-22T11:14:07;5.40;;;2.27;;
22480;SDS011;11407;56.964;-2.212;2023-02-22T11:17:35;4.87;;;1.70;;
22480;SDS011;11407;56.964;-2.212;2023-02-22T11:19:30;3.33;;;1.63;;
22480;SDS011;11407;56.964;-2.212;2023-02-22T11:22:40;5.80;;;1.50;;
22480;SDS011;11407;56.964;-2.212;2023-02-22T11:24:45;8.27;;;2.20;;
22480;SDS011;11407;56.964;-2.212;2023-02-22T11:27:19;5.67;;;2.10;;
22480;SDS011;11407;56.964;-2.212;2023-02-22T11:29:46;4.73;;;1.37;;
22480;SDS011;11407;56.964;-2.212;2023-02-22T11:32:15;5.50;;;1.30;;
22480;SDS011;11407;56.964;-2.212;2023-02-22T11:34:45;2.77;;;1.10;;
22480;SDS011;11407;56.964;-2.212;2023-02-22T11:37:14;5.17;;;1.10;;
22480;SDS011;11407;56.964;-2.212;2023-02-22T11:39:40;2.80;;;1.00;;
22480;SDS011;11407;56.964;-2.212;2023-02-22T11:44:41;7.47;;;1.20;;
22480;SDS011;11407;56.964;-2.212;2023-02-22T11:47:10;7.23;;;1.40;;
22480;SDS011;11407;56.964;-2.212;2023-02-22T11:49:36;2.70;;;0.87;;
22480;SDS011;11407;56.964;-2.212;2023-02-22T12:20:58;10.80;;;1.30;;
22480;SDS011;11407;56.964;-2.212;2023-02-22T12:26:31;6.27;;;1.20;;
22480;SDS011;11407;56.964;-2.212;2023-02-22T12:28:59;5.73;;;1.50;;
22480;SDS011;11407;56.964;-2.212;2023-02-22T12:31:34;7.20;;;1.20;;
22480;SDS011;11407;56.964;-2.212;2023-02-22T12:36:33;8.27;;;1.70;;
22480;SDS011;11407;56.964;-2.212;2023-02-22T12:39:02;5.87;;;1.40;;
22480;SDS011;11407;56.964;-2.212;2023-02-22T12:41:34;6.53;;;1.40;;
22480;SDS011;11407;56.964;-2.212;2023-02-22T12:44:09;4.83;;;1.40;;
22480;SDS011;11407;56.964;-2.212;2023-02-22T12:46:39;5.23;;;1.53;;
22480;SDS011;11407;56.964;-2.212;2023-02-22T12:49:52;8.43;;;1.50;;
22480;SDS011;11407;56.964;-2.212;2023-02-22T12:51:54;6.27;;;1.60;;
22480;SDS011;11407;56.964;-2.212;2023-02-22T12:56:52;9.30;;;1.30;;
22480;SDS011;11407;56.964;-2.212;2023-02-22T13:01:55;3.23;;;1.00;;
22480;SDS011;11407;56.964;-2.212;2023-02-22T13:04:22;3.90;;;1.37;;
22480;SDS011;11407;56.964;-2.212;2023-02-22T13:11:42;5.43;;;1.00;;
22480;SDS011;11407;56.964;-2.212;2023-02-22T13:16:49;5.03;;;1.17;;
22480;SDS011;11407;56.964;-2.212;2023-02-22T13:27:13;2.97;;;0.83;;
22480;SDS011;11407;56.964;-2.212;2023-02-22T13:29:41;5.90;;;1.30;;
22480;SDS011;11407;56.964;-2.212;2023-02-22T13:52:31;4.87;;;1.07;;
22480;SDS011;11407;56.964;-2.212;2023-02-22T13:54:59;6.40;;;1.10;;
22480;SDS011;11407;56.964;-2.212;2023-02-22T13:57:39;5.07;;;1.83;;
22480;SDS011;11407;56.964;-2.212;2023-02-22T14:13:11;6.27;;;1.60;;
22480;SDS011;11407;56.964;-2.212;2023-02-22T14:21:04;2.50;;;0.90;;
22480;SDS011;11407;56.964;-2.212;2023-02-22T14:26:31;5.17;;;1.23;;
22480;SDS011;11407;56.964;-2.212;2023-02-22T14:28:53;5.77;;;1.30;;
22480;SDS011;11407;56.964;-2.212;2023-02-22T14:31:20;2.00;;;0.77;;
22480;SDS011;11407;56.964;-2.212;2023-02-22T14:36:22;4.37;;;1.03;;
22480;SDS011;11407;56.964;-2.212;2023-02-22T14:38:50;4.33;;;0.90;;
22480;SDS011;11407;56.964;-2.212;2023-02-22T14:41:18;5.70;;;1.10;;
22480;SDS011;11407;56.964;-2.212;2023-02-22T14:43:45;6.00;;;1.90;;
22480;SDS011;11407;56.964;-2.212;2023-02-22T14:46:13;3.77;;;0.80;;
22480;SDS011;11407;56.964;-2.212;2023-02-22T14:48:42;3.47;;;1.50;;
22480;SDS011;11407;56.964;-2.212;2023-02-22T14:51:16;4.37;;;1.00;;
22480;SDS011;11407;56.964;-2.212;2023-02-22T14:53:44;5.63;;;1.73;;
22480;SDS011;11407;56.964;-2.212;2023-02-22T15:03:47;1.73;;;0.97;;
22480;SDS011;11407;56.964;-2.212;2023-02-22T15:06:16;3.33;;;1.10;;
22480;SDS011;11407;56.964;-2.212;2023-02-22T15:08:43;2.10;;;0.93;;
22480;SDS011;11407;56.964;-2.212;2023-02-22T15:11:22;2.10;;;0.67;;
22480;SDS011;11407;56.964;-2.212;2023-02-22T15:13:48;2.73;;;1.03;;
22480;SDS011;11407;56.964;-2.212;2023-02-22T15:16:14;1.83;;;0.80;;
22480;SDS011;11407;56.964;-2.212;2023-02-22T15:18:39;2.87;;;0.60;;
22480;SDS011;11407;56.964;-2.212;2023-02-22T15:24:06;5.00;;;0.80;;
22480;SDS011;11407;56.964;-2.212;2023-02-22T15:26:28;1.90;;;0.80;;
22480;SDS011;11407;56.964;-2.212;2023-02-22T15:28:55;3.37;;;1.00;;
22480;SDS011;11407;56.964;-2.212;2023-02-22T15:31:31;6.33;;;1.10;;
22480;SDS011;11407;56.964;-2.212;2023-02-22T15:33:56;2.73;;;0.80;;
22480;SDS011;11407;56.964;-2.212;2023-02-22T15:36:32;2.47;;;0.73;;
22480;SDS011;11407;56.964;-2.212;2023-02-22T15:38:59;1.47;;;0.70;;
22480;SDS011;11407;56.964;-2.212;2023-02-22T15:41:26;2.83;;;0.70;;
22480;SDS011;11407;56.964;-2.212;2023-02-22T15:44:02;2.80;;;0.70;;
22480;SDS011;11407;56.964;-2.212;2023-02-22T15:46:28;1.90;;;0.47;;
22480;SDS011;11407;56.964;-2.212;2023-02-22T15:49:04;3.17;;;0.70;;
22480;SDS011;11407;56.964;-2.212;2023-02-22T15:51:29;2.30;;;0.70;;
22480;SDS011;11407;56.964;-2.212;2023-02-22T15:53:56;1.83;;;0.80;;
22480;SDS011;11407;56.964;-2.212;2023-02-22T15:56:24;4.13;;;0.67;;
22480;SDS011;11407;56.964;-2.212;2023-02-22T15:58:51;1.33;;;0.63;;
22480;SDS011;11407;56.964;-2.212;2023-02-22T16:01:22;2.30;;;1.13;;
22480;SDS011;11407;56.964;-2.212;2023-02-22T16:03:49;2.70;;;1.30;;
22480;SDS011;11407;56.964;-2.212;2023-02-22T16:08:49;2.43;;;1.30;;
22480;SDS011;11407;56.964;-2.212;2023-02-22T16:11:20;2.00;;;1.37;;
22480;SDS011;11407;56.964;-2.212;2023-02-22T16:13:50;2.67;;;1.60;;
22480;SDS011;11407;56.964;-2.212;2023-02-22T16:18:41;1.83;;;1.20;;
22480;SDS011;11407;56.964;-2.212;2023-02-22T16:23:41;3.50;;;1.70;;
22480;SDS011;11407;56.964;-2.212;2023-02-22T16:28:48;3.37;;;1.37;;
22480;SDS011;11407;56.964;-2.212;2023-02-22T16:31:16;1.90;;;0.90;;
22480;SDS011;11407;56.964;-2.212;2023-02-22T16:33:41;4.63;;;1.33;;
22480;SDS011;11407;56.964;-2.212;2023-02-22T16:36:07;5.07;;;1.20;;
22480;SDS011;11407;56.964;-2.212;2023-02-22T16:38:32;4.50;;;1.20;;
22480;SDS011;11407;56.964;-2.212;2023-02-22T16:40:57;4.63;;;1.40;;
22480;SDS011;11407;56.964;-2.212;2023-02-22T16:43:24;5.17;;;2.30;;
22480;SDS011;11407;56.964;-2.212;2023-02-22T16:45:49;6.43;;;1.77;;
22480;SDS011;11407;56.964;-2.212;2023-02-22T16:48:20;3.10;;;1.40;;
22480;SDS011;11407;56.964;-2.212;2023-02-22T16:50:46;8.27;;;1.80;;
22480;SDS011;11407;56.964;-2.212;2023-02-22T16:53:12;5.27;;;1.60;;
22480;SDS011;11407;56.964;-2.212;2023-02-22T16:55:40;5.00;;;1.53;;
22480;SDS011;11407;56.964;-2.212;2023-02-22T16:58:05;5.70;;;1.80;;
22480;SDS011;11407;56.964;-2.212;2023-02-22T17:00:31;4.13;;;1.47;;
22480;SDS011;11407;56.964;-2.212;2023-02-22T17:02:59;7.03;;;1.80;;
22480;SDS011;11407;56.964;-2.212;2023-02-22T17:05:27;6.73;;;1.50;;
22480;SDS011;11407;56.964;-2.212;2023-02-22T17:07:53;4.50;;;1.30;;
22480;SDS011;11407;56.964;-2.212;2023-02-22T17:10:18;9.80;;;2.30;;
22480;SDS011;11407;56.964;-2.212;2023-02-22T17:12:47;6.93;;;1.57;;
22480;SDS011;11407;56.964;-2.212;2023-02-22T17:15:18;7.80;;;1.20;;
22480;SDS011;11407;56.964;-2.212;2023-02-22T17:17:45;5.77;;;1.40;;
22480;SDS011;11407;56.964;-2.212;2023-02-22T17:20:10;5.07;;;1.30;;
22480;SDS011;11407;56.964;-2.212;2023-02-22T17:22:35;3.17;;;1.23;;
22480;SDS011;11407;56.964;-2.212;2023-02-22T17:25:00;5.73;;;1.73;;
22480;SDS011;11407;56.964;-2.212;2023-02-22T17:27:27;3.43;;;1.00;;